Time;durP1;ratioP1;P1;durP2;ratioP2;P2;SDS_P1;SDS_P2;PMS_P1;PMS_P2;Temp;Humidity;BMP_temperature;BMP_pressure;BME280_temperature;BME280_humidity;BME280_pressure;Samples;Min_cycle;Max_cycle;Signal;HPM_P1;HPM_P2
2022/06/24 00:00:14;;;;;;;2.20;2.10;;;;;;;19.39;70.27;100670.59;5015751;28;20482;-86
2022/06/24 00:02:40;;;;;;;2.30;2.20;;;;;;;19.38;70.14;100676.81;5015783;28;20059;-86
2022/06/24 00:05:09;;;;;;;2.33;2.20;;;;;;;19.36;70.20;100673.41;5015477;28;20063;-85
2022/06/24 00:07:48;;;;;;;1.95;1.85;;;;;;;19.33;70.04;100676.19;5015516;28;20025;-86
2022/06/24 00:10:15;;;;;;;2.40;2.20;;;;;;;19.33;69.33;100668.25;5015257;28;20025;-86
2022/06/24 00:12:40;;;;;;;2.33;2.20;;;;;;;19.30;69.97;100665.78;5015183;28;20521;-86
2022/06/24 00:15:07;;;;;;;2.20;2.10;;;;;;;19.29;69.60;100672.00;5015367;28;20068;-86
2022/06/24 00:17:33;;;;;;;1.85;1.75;;;;;;;19.28;68.88;100666.78;5015143;28;20486;-86
2022/06/24 00:19:59;;;;;;;2.00;1.90;;;;;;;19.25;69.24;100666.03;5031923;28;20036;-86
2022/06/24 00:22:27;;;;;;;1.77;1.67;;;;;;;19.24;68.36;100666.97;5014970;28;20060;-86
2022/06/24 00:25:13;;;;;;;2.30;2.20;;;;;;;19.20;68.71;100660.13;5014615;28;20037;-86
2022/06/24 00:27:39;;;;;;;2.10;2.00;;;;;;;19.18;68.95;100664.66;5015249;28;20115;-86
2022/06/24 00:30:08;;;;;;;1.85;1.75;;;;;;;19.15;68.97;100662.16;5015285;28;20465;-86
2022/06/24 00:32:34;;;;;;;1.95;1.85;;;;;;;19.12;68.22;100657.03;5031538;28;20089;-86
2022/06/24 00:35:15;;;;;;;2.00;1.90;;;;;;;19.09;68.28;100652.75;5015110;28;20116;-86
2022/06/24 00:37:42;;;;;;;1.70;1.60;;;;;;;19.07;68.16;100646.69;5015050;28;20108;-86
2022/06/24 00:40:10;;;;;;;1.85;1.75;;;;;;;19.03;68.04;100646.91;5015248;28;20033;-86
2022/06/24 00:42:41;;;;;;;1.80;1.70;;;;;;;19.00;67.73;100650.56;5031764;28;20117;-86
2022/06/24 00:45:33;;;;;;;1.95;1.85;;;;;;;18.98;67.90;100638.34;5014930;28;20116;-86
2022/06/24 00:47:59;;;;;;;2.88;2.17;;;;;;;18.96;68.16;100638.44;5032176;28;20150;-87
2022/06/24 00:50:26;;;;;;;1.90;1.80;;;;;;;18.92;68.31;100639.53;5031843;28;20529;-87
2022/06/24 00:52:54;;;;;;;1.85;1.75;;;;;;;18.90;68.27;100636.97;5014838;28;20429;-86
2022/06/24 00:55:31;;;;;;;2.22;1.70;;;;;;;18.87;68.20;100636.22;5014891;28;20328;-87
2022/06/24 00:57:57;;;;;;;1.88;1.77;;;;;;;18.84;68.16;100631.97;5031457;28;20065;-86
2022/06/24 01:00:28;;;;;;;2.20;2.00;;;;;;;18.82;67.76;100630.34;5014890;28;20025;-87
2022/06/24 01:03:14;;;;;;;2.90;1.70;;;;;;;18.79;68.40;100627.84;5014902;28;20029;-86
2022/06/24 01:05:40;;;;;;;2.35;2.10;;;;;;;18.78;68.14;100626.16;5014877;28;20033;-86
2022/06/24 01:08:11;;;;;;;1.95;1.83;;;;;;;18.74;68.03;100628.09;5014636;28;20136;-87
2022/06/24 01:10:37;;;;;;;1.92;1.83;;;;;;;18.71;67.23;100625.59;5014701;28;20060;-87
2022/06/24 01:13:06;;;;;;;1.73;1.63;;;;;;;18.68;67.23;100616.03;5014720;28;20090;-86
2022/06/24 01:15:32;;;;;;;2.00;1.90;;;;;;;18.66;68.07;100617.88;5014575;28;20129;-86
2022/06/24 01:17:57;;;;;;;2.20;2.10;;;;;;;18.64;67.41;100614.47;5014678;28;20109;-86
2022/06/24 01:20:23;;;;;;;1.90;1.80;;;;;;;18.60;67.95;100607.63;5014717;28;20108;-86
2022/06/24 01:22:48;;;;;;;2.10;2.00;;;;;;;18.56;68.12;100616.66;5014526;28;20463;-87
2022/06/24 01:25:14;;;;;;;1.85;1.75;;;;;;;18.53;67.65;100608.91;5014460;28;20479;-86
2022/06/24 01:27:39;;;;;;;2.00;1.90;;;;;;;18.51;68.30;100613.38;5014616;28;20033;-86
2022/06/24 01:30:06;;;;;;;1.77;1.67;;;;;;;18.47;67.35;100596.81;5014744;28;20033;-86
2022/06/24 01:32:31;;;;;;;2.53;1.92;;;;;;;18.44;68.69;100598.78;5014569;28;20435;-86
2022/06/24 01:34:57;;;;;;;2.33;2.13;;;;;;;18.41;68.23;100592.69;5032706;28;20125;-86
2022/06/24 01:37:23;;;;;;;2.00;1.90;;;;;;;18.37;67.90;100601.72;5018683;28;20027;-86
2022/06/24 01:39:48;;;;;;;2.00;1.90;;;;;;;18.35;68.19;100600.06;5018254;28;20132;-86
2022/06/24 01:42:14;;;;;;;2.03;1.92;;;;;;;18.33;68.52;100596.66;5018505;28;20125;-86
2022/06/24 01:44:39;;;;;;;2.38;2.28;;;;;;;18.31;68.07;100594.09;5017990;28;20479;-86
2022/06/24 01:47:05;;;;;;;2.35;2.15;;;;;;;18.28;68.67;100588.09;5018352;28;20064;-86
2022/06/24 01:49:30;;;;;;;2.20;2.10;;;;;;;18.26;68.46;100588.19;5018191;28;20024;-86
2022/06/24 01:51:56;;;;;;;2.33;2.22;;;;;;;18.23;69.04;100588.34;5018065;28;20021;-86
2022/06/24 01:54:22;;;;;;;3.00;2.90;;;;;;;18.20;68.76;100575.25;5018056;28;20032;-86
2022/06/24 01:56:48;;;;;;;2.70;2.60;;;;;;;18.18;69.16;100574.50;5018007;28;20025;-86
2022/06/24 01:59:14;;;;;;;2.75;2.55;;;;;;;18.15;68.02;100572.88;5018040;28;20112;-86
2022/06/24 02:01:40;;;;;;;2.40;2.15;;;;;;;18.11;68.95;100571.31;5017921;28;20030;-86
2022/06/24 02:04:06;;;;;;;2.28;2.17;;;;;;;18.08;68.56;100569.66;5017902;28;20490;-86
2022/06/24 02:06:32;;;;;;;2.72;2.13;;;;;;;18.05;68.81;100564.53;5034225;28;20021;-86
2022/06/24 02:08:57;;;;;;;2.13;2.03;;;;;;;18.03;68.72;100555.81;5017617;28;20025;-86
2022/06/24 02:14:09;;;;;;;2.53;2.38;;;;;;;18.00;69.00;100547.22;5033571;28;20560;-87
2022/06/24 02:16:35;;;;;;;2.20;2.10;;;;;;;17.98;69.08;100551.69;5017716;28;20037;-86
2022/06/24 02:19:01;;;;;;;2.40;2.30;;;;;;;17.97;69.09;100548.22;5017440;28;20021;-86
2022/06/24 02:21:27;;;;;;;2.13;2.03;;;;;;;17.96;68.68;100550.94;5017411;28;20032;-86
2022/06/24 02:23:53;;;;;;;2.00;1.90;;;;;;;17.95;69.03;100547.41;5017546;28;20098;-86
2022/06/24 02:26:19;;;;;;;1.98;1.88;;;;;;;17.94;68.79;100544.84;5017334;28;20029;-86
2022/06/24 02:28:44;;;;;;;2.45;2.35;;;;;;;17.92;68.57;100537.00;5017298;28;20025;-86
2022/06/24 02:31:10;;;;;;;2.10;2.00;;;;;;;17.90;68.70;100541.47;5017520;28;20021;-86
2022/06/24 02:33:36;;;;;;;2.50;2.40;;;;;;;17.87;69.03;100541.63;5017366;28;20029;-86
2022/06/24 02:36:02;;;;;;;2.17;2.08;;;;;;;17.86;69.07;100526.69;5017244;28;20068;-86
2022/06/24 02:38:27;;;;;;;3.42;2.40;;;;;;;17.85;69.60;100530.28;5016928;28;20036;-86
2022/06/24 02:40:53;;;;;;;2.33;2.22;;;;;;;17.83;69.08;100526.84;5017227;28;20033;-86
2022/06/24 02:43:19;;;;;;;2.70;2.60;;;;;;;17.83;69.17;100521.56;5017493;28;20029;-86
2022/06/24 02:45:49;;;;;;;2.95;2.22;;;;;;;17.81;68.63;100518.16;5016422;28;20114;-86
2022/06/24 02:48:16;;;;;;;2.67;2.53;;;;;;;17.80;68.85;100524.38;5016853;28;20025;-86
2022/06/24 02:50:44;;;;;;;2.38;2.28;;;;;;;17.78;69.41;100507.72;5016993;28;20028;-87
2022/06/24 02:53:09;;;;;;;2.33;2.13;;;;;;;17.76;69.80;100507.81;5016811;28;20120;-86
2022/06/24 02:55:37;;;;;;;2.88;2.67;;;;;;;17.75;69.64;100519.28;5016758;28;20116;-86
2022/06/24 02:58:04;;;;;;;2.38;2.28;;;;;;;17.72;69.01;100507.13;5016847;28;20087;-86
2022/06/24 03:00:29;;;;;;;2.50;2.40;;;;;;;17.71;69.64;100502.75;5017172;28;20021;-86
2022/06/24 03:02:54;;;;;;;2.47;2.38;;;;;;;17.71;69.67;100499.25;5016775;28;20395;-86
2022/06/24 03:05:20;;;;;;;2.30;2.20;;;;;;;17.70;69.12;100506.31;5016648;28;20415;-87
2022/06/24 03:07:46;;;;;;;2.78;2.67;;;;;;;17.69;68.76;100487.91;5016663;28;20109;-85
2022/06/24 03:10:11;;;;;;;2.88;2.67;;;;;;;17.68;69.81;100489.72;5016617;28;20018;-86
2022/06/24 03:12:37;;;;;;;2.60;2.40;;;;;;;17.69;69.33;100498.47;5016523;28;20017;-86
2022/06/24 03:15:02;;;;;;;2.47;2.38;;;;;;;17.69;69.23;100486.13;5016296;28;20040;-86
2022/06/24 03:17:27;;;;;;;2.40;2.30;;;;;;;17.70;70.18;100485.19;5016336;28;20025;-86
2022/06/24 03:19:53;;;;;;;2.85;2.70;;;;;;;17.71;70.35;100480.75;5016460;28;20067;-86
2022/06/24 03:22:18;;;;;;;4.28;2.63;;;;;;;17.71;69.40;100473.72;5016179;28;20029;-86
2022/06/24 03:24:44;;;;;;;2.60;2.50;;;;;;;17.71;68.40;100471.06;5016195;28;20103;-86
2022/06/24 03:27:09;;;;;;;2.50;2.40;;;;;;;17.76;68.45;100467.34;5033132;28;20021;-86
2022/06/24 03:29:34;;;;;;;2.90;2.80;;;;;;;17.80;68.93;100459.16;5016107;28;20027;-86
2022/06/24 03:32:00;;;;;;;2.78;2.67;;;;;;;17.85;68.76;100461.59;5016051;28;20027;-86
2022/06/24 03:34:25;;;;;;;2.80;2.70;;;;;;;17.88;69.02;100454.34;5016090;28;20033;-86
2022/06/24 03:36:51;;;;;;;3.00;2.80;;;;;;;17.92;69.50;100456.91;5016053;28;20079;-86
2022/06/24 03:39:16;;;;;;;2.63;2.50;;;;;;;17.92;67.86;100457.75;5016056;28;20029;-86
2022/06/24 03:41:41;;;;;;;3.03;2.83;;;;;;;17.95;67.81;100456.72;5015987;28;20025;-86
2022/06/24 03:44:07;;;;;;;2.72;2.50;;;;;;;17.97;68.29;100446.91;5016032;28;20017;-86
2022/06/24 03:46:32;;;;;;;3.00;2.80;;;;;;;18.01;68.38;100452.00;5015693;28;20033;-86
2022/06/24 03:48:58;;;;;;;2.47;2.38;;;;;;;18.02;67.44;100442.25;5015832;28;20052;-86
2022/06/24 03:51:23;;;;;;;3.42;2.88;;;;;;;18.03;68.17;100438.69;5032455;28;20057;-86
2022/06/24 03:53:48;;;;;;;2.58;2.47;;;;;;;18.07;68.52;100441.09;5015705;28;20032;-86
2022/06/24 03:56:14;;;;;;;2.70;2.60;;;;;;;18.11;68.39;100443.59;5015771;28;20021;-86
2022/06/24 03:58:39;;;;;;;2.65;2.42;;;;;;;18.13;68.43;100434.63;5031423;28;20025;-86
2022/06/24 04:01:05;;;;;;;2.47;2.38;;;;;;;18.14;68.57;100436.34;5016001;28;20022;-85
2022/06/24 04:03:30;;;;;;;2.80;2.42;;;;;;;18.16;69.05;100434.50;5015922;28;20021;-86
2022/06/24 04:05:56;;;;;;;2.70;2.60;;;;;;;18.16;68.58;100423.03;5015483;28;20034;-86
2022/06/24 04:08:21;;;;;;;2.70;2.40;;;;;;;18.17;68.37;100420.31;5015547;28;20029;-86
2022/06/24 04:10:46;;;;;;;3.00;2.80;;;;;;;18.17;67.83;100420.31;5015515;28;20029;-87
2022/06/24 04:13:12;;;;;;;2.83;2.63;;;;;;;18.19;68.70;100420.25;5032172;28;20493;-87
2022/06/24 04:15:47;;;;;;;2.67;2.50;;;;;;;18.21;69.05;100421.03;5015451;28;20056;-86
2022/06/24 04:18:13;;;;;;;2.95;2.40;;;;;;;18.22;69.35;100413.00;5015489;28;20025;-86
2022/06/24 04:20:39;;;;;;;2.88;2.67;;;;;;;18.24;69.38;100407.63;5015444;28;20103;-87
2022/06/24 04:23:04;;;;;;;2.40;2.30;;;;;;;18.22;67.72;100401.59;5035624;23;20040;-86
2022/06/24 04:25:30;;;;;;;3.17;2.97;;;;;;;18.22;67.84;100398.94;5051402;28;20108;-86
2022/06/24 04:27:55;;;;;;;2.50;2.30;;;;;;;18.23;67.74;100403.31;5048185;28;20052;-86
2022/06/24 04:30:21;;;;;;;2.65;2.47;;;;;;;18.25;69.01;100396.13;5015102;28;20030;-86
2022/06/24 04:32:46;;;;;;;2.70;2.60;;;;;;;18.25;67.85;100390.84;5015055;28;20035;-86
2022/06/24 04:35:12;;;;;;;2.88;2.67;;;;;;;18.27;67.74;100385.47;5014899;28;20056;-86
2022/06/24 04:37:39;;;;;;;3.38;2.60;;;;;;;18.29;68.49;100392.38;5031247;28;20144;-86
2022/06/24 04:40:06;;;;;;;2.85;2.65;;;;;;;18.30;68.31;100388.81;5014903;28;20030;-86
2022/06/24 04:42:31;;;;;;;2.85;2.45;;;;;;;18.32;68.04;100381.63;5014867;28;20021;-87
2022/06/24 04:44:57;;;;;;;2.90;2.70;;;;;;;18.34;68.51;100382.44;5014896;28;20029;-87
2022/06/24 04:47:22;;;;;;;3.10;2.90;;;;;;;18.35;67.96;100381.50;5014880;28;20025;-87
2022/06/24 04:49:48;;;;;;;3.08;2.70;;;;;;;18.34;67.49;100384.22;5014977;28;20032;-87
2022/06/24 04:52:15;;;;;;;2.75;2.55;;;;;;;18.34;67.38;100384.22;5014901;28;20029;-87
2022/06/24 04:54:41;;;;;;;2.80;2.58;;;;;;;18.34;67.82;100382.44;5015158;28;20052;-87
2022/06/24 04:57:07;;;;;;;3.03;2.83;;;;;;;18.35;68.16;100376.22;5014822;28;20053;-87
2022/06/24 04:59:33;;;;;;;4.15;2.83;;;;;;;18.36;67.35;100369.97;5014792;28;20059;-87
2022/06/24 05:01:59;;;;;;;2.90;2.70;;;;;;;18.37;67.27;100369.03;5014756;28;20021;-87
2022/06/24 05:04:24;;;;;;;3.08;2.78;;;;;;;18.38;67.78;100375.19;5014685;28;20021;-87
2022/06/24 05:06:49;;;;;;;2.50;2.40;;;;;;;18.39;68.21;100372.47;5014653;28;20026;-87
2022/06/24 05:09:18;;;;;;;4.55;2.92;;;;;;;18.39;67.73;100375.09;5014191;28;20464;-87
2022/06/24 05:11:44;;;;;;;3.00;2.80;;;;;;;18.42;67.37;100374.09;5014239;28;20090;-87
2022/06/24 05:14:09;;;;;;;2.67;2.47;;;;;;;18.43;67.17;100370.50;5014526;28;20471;-86
2022/06/24 05:16:34;;;;;;;3.00;2.80;;;;;;;18.45;67.35;100363.34;5031388;28;20028;-87
2022/06/24 05:19:00;;;;;;;3.28;3.08;;;;;;;18.50;66.63;100363.06;5014470;28;20060;-87
2022/06/24 05:21:25;;;;;;;2.97;2.80;;;;;;;18.47;67.54;100355.31;5030833;28;20032;-87
2022/06/24 05:23:51;;;;;;;2.90;2.80;;;;;;;18.50;68.21;100368.38;5014457;28;20036;-87
2022/06/24 05:26:17;;;;;;;2.67;2.58;;;;;;;18.54;68.19;100364.63;5014459;28;20091;-87
2022/06/24 05:28:42;;;;;;;4.82;3.08;;;;;;;18.55;67.09;100356.59;5014399;28;20037;-87
2022/06/24 05:31:08;;;;;;;3.33;3.15;;;;;;;18.58;67.38;100352.94;5014363;28;20391;-86
2022/06/24 05:33:33;;;;;;;3.05;2.85;;;;;;;18.61;67.81;100354.56;5014214;28;20061;-87
2022/06/24 05:35:59;;;;;;;3.40;3.10;;;;;;;18.62;66.83;100354.47;5014413;28;20395;-86
2022/06/24 05:38:25;;;;;;;2.90;2.75;;;;;;;18.65;66.83;100350.81;5014105;28;20028;-87
2022/06/24 05:40:51;;;;;;;3.05;2.85;;;;;;;18.68;67.58;100354.13;5014331;28;20040;-87
2022/06/24 05:43:17;;;;;;;2.88;2.78;;;;;;;18.69;66.96;100342.63;5014545;28;20026;-86
2022/06/24 05:45:44;;;;;;;3.35;3.15;;;;;;;18.72;68.10;100339.81;5014594;28;20029;-87
2022/06/24 05:48:09;;;;;;;3.00;2.80;;;;;;;18.74;66.65;100335.25;5030522;28;20022;-86
2022/06/24 05:50:38;;;;;;;3.25;3.05;;;;;;;18.77;67.30;100338.69;5014367;28;20033;-86
2022/06/24 05:55:49;;;;;;;3.28;3.08;;;;;;;18.82;67.99;100324.25;5031150;28;20509;-87
2022/06/24 05:58:14;;;;;;;3.85;3.25;;;;;;;18.86;66.63;100327.59;5014092;28;20033;-86
2022/06/24 06:00:40;;;;;;;3.67;3.42;;;;;;;18.86;67.46;100327.59;5014199;28;20029;-85
2022/06/24 06:03:05;;;;;;;3.30;3.10;;;;;;;18.87;66.62;100318.69;5014164;28;20024;-87
2022/06/24 06:05:30;;;;;;;3.92;3.42;;;;;;;18.88;66.47;100316.03;5014340;28;20033;-87
2022/06/24 06:07:56;;;;;;;3.70;3.50;;;;;;;18.90;66.68;100314.13;5030593;28;20026;-87
2022/06/24 06:10:21;;;;;;;3.78;3.45;;;;;;;18.93;66.63;100315.75;5014384;28;20036;-86
2022/06/24 06:12:47;;;;;;;4.53;3.15;;;;;;;18.96;66.82;100320.84;5013955;28;20453;-86
2022/06/24 06:15:12;;;;;;;3.08;2.88;;;;;;;18.99;67.18;100331.28;5030881;28;20021;-86
2022/06/24 06:17:38;;;;;;;3.47;3.17;;;;;;;19.03;66.87;100330.16;5014067;28;20436;-86
2022/06/24 06:20:03;;;;;;;3.20;3.00;;;;;;;19.08;67.07;100328.09;5014034;28;20025;-86
2022/06/24 06:22:29;;;;;;;3.22;3.03;;;;;;;19.13;67.08;100324.31;5016284;28;20060;-86
2022/06/24 06:24:55;;;;;;;4.82;3.13;;;;;;;19.16;66.93;100332.09;5017487;28;20030;-86
2022/06/24 06:27:21;;;;;;;5.80;3.30;;;;;;;19.20;67.60;100330.97;5017588;28;20496;-86
2022/06/24 06:29:47;;;;;;;3.90;3.30;;;;;;;19.24;67.27;100332.50;5017496;28;20025;-86
2022/06/24 06:32:12;;;;;;;3.30;3.10;;;;;;;19.27;66.28;100321.72;5033727;28;20028;-86
2022/06/24 06:34:38;;;;;;;3.40;3.20;;;;;;;19.28;66.02;100319.94;5033942;28;20087;-86
2022/06/24 06:37:03;;;;;;;3.28;3.17;;;;;;;19.30;67.16;100332.13;5033678;28;20029;-85
2022/06/24 06:39:29;;;;;;;3.30;3.10;;;;;;;19.30;67.92;100329.50;5017184;28;20103;-86
2022/06/24 06:41:54;;;;;;;2.88;2.78;;;;;;;19.30;67.91;100334.78;5017281;28;20024;-86
2022/06/24 06:44:20;;;;;;;3.20;3.00;;;;;;;19.29;68.58;100335.72;5017231;28;20478;-86
2022/06/24 06:46:45;;;;;;;3.22;2.95;;;;;;;19.31;68.59;100328.56;5017186;28;20471;-86
2022/06/24 06:49:11;;;;;;;3.45;3.25;;;;;;;19.33;68.92;100334.59;5017118;28;20308;-86
2022/06/24 06:51:36;;;;;;;3.05;2.90;;;;;;;19.37;68.75;100344.09;5033362;28;20029;-86
2022/06/24 06:54:02;;;;;;;3.40;3.20;;;;;;;19.41;68.44;100335.03;5017126;28;20056;-86
2022/06/24 06:56:27;;;;;;;3.42;3.22;;;;;;;19.49;67.55;100337.19;5033104;28;20025;-86
2022/06/24 06:58:55;;;;;;;3.90;3.60;;;;;;;19.57;67.13;100334.09;5032975;28;20029;-86
2022/06/24 07:01:21;;;;;;;3.83;3.38;;;;;;;19.65;66.79;100331.84;5016729;28;20037;-87
2022/06/24 07:03:46;;;;;;;4.03;3.72;;;;;;;19.72;66.38;100327.88;5016938;28;20030;-86
2022/06/24 07:06:12;;;;;;;4.25;3.85;;;;;;;19.81;66.46;100320.34;5033460;28;20017;-86
2022/06/24 07:08:37;;;;;;;3.65;3.35;;;;;;;19.88;67.14;100321.69;5033227;28;20033;-85
2022/06/24 07:11:03;;;;;;;6.10;3.45;;;;;;;19.93;66.08;100314.28;5033246;28;20092;-86
2022/06/24 07:13:29;;;;;;;3.50;3.25;;;;;;;19.96;64.97;100308.81;5032898;28;20029;-85
2022/06/24 07:15:54;;;;;;;3.70;3.50;;;;;;;19.99;65.86;100311.28;5016474;28;20022;-86
2022/06/24 07:18:20;;;;;;;4.28;3.80;;;;;;;20.02;65.74;100308.44;5032823;28;20022;-86
2022/06/24 07:20:46;;;;;;;5.43;3.47;;;;;;;20.06;66.11;100307.28;5032844;28;20025;-86
2022/06/24 07:23:11;;;;;;;4.10;3.75;;;;;;;20.12;66.68;100308.72;5032729;28;20083;-86
2022/06/24 07:25:37;;;;;;;3.60;3.40;;;;;;;20.16;65.96;100306.72;5032576;28;20095;-86
2022/06/24 07:28:02;;;;;;;3.70;3.30;;;;;;;20.20;66.22;100297.63;5033216;28;20026;-86
2022/06/24 07:30:28;;;;;;;3.90;3.28;;;;;;;20.24;66.08;100301.78;5032883;28;20396;-87
2022/06/24 07:32:54;;;;;;;3.85;3.33;;;;;;;20.28;66.30;100295.34;5032436;28;20398;-86
2022/06/24 07:35:19;;;;;;;3.80;3.60;;;;;;;20.32;65.84;100296.84;5032855;28;20036;-87
2022/06/24 07:37:44;;;;;;;3.67;3.38;;;;;;;20.37;64.28;100292.13;5016381;28;20017;-87
2022/06/24 07:40:10;;;;;;;3.58;3.38;;;;;;;20.43;64.13;100286.41;5016089;28;20061;-86
2022/06/24 07:42:36;;;;;;;3.53;3.17;;;;;;;20.51;64.22;100285.09;5032670;28;20020;-86
2022/06/24 07:45:01;;;;;;;3.50;3.20;;;;;;;20.58;63.60;100276.59;5032510;28;20025;-86
2022/06/24 07:47:27;;;;;;;5.10;3.38;;;;;;;20.68;63.71;100276.00;5032560;28;20406;-86
2022/06/24 07:49:52;;;;;;;4.05;3.75;;;;;;;20.76;62.80;100266.66;5032347;28;20029;-86
2022/06/24 07:52:18;;;;;;;3.53;3.33;;;;;;;20.84;61.79;100267.94;5015723;28;20028;-86
2022/06/24 07:54:43;;;;;;;3.53;3.22;;;;;;;20.92;62.57;100260.31;5015965;28;20072;-86
2022/06/24 07:57:08;;;;;;;5.38;4.55;;;;;;;21.00;61.42;100260.66;5015736;28;20029;-86
2022/06/24 07:59:35;;;;;;;3.60;3.40;;;;;;;21.07;61.61;100263.75;5032212;28;20029;-86
2022/06/24 08:02:07;;;;;;;3.80;3.50;;;;;;;21.14;61.02;100265.03;5031942;28;20064;-86
2022/06/24 08:04:32;;;;;;;3.88;3.60;;;;;;;21.20;60.89;100263.75;5015892;28;20021;-86
2022/06/24 08:06:58;;;;;;;3.78;3.20;;;;;;;21.25;61.62;100259.84;5031923;28;20032;-85
2022/06/24 08:09:26;;;;;;;3.40;3.20;;;;;;;21.28;60.75;100261.44;5031944;28;20506;-85
2022/06/24 08:11:52;;;;;;;4.75;3.42;;;;;;;21.34;60.28;100257.53;5031774;28;20021;-86
2022/06/24 08:14:18;;;;;;;3.40;3.20;;;;;;;21.39;59.98;100256.25;5031837;28;20025;-86
2022/06/24 08:16:44;;;;;;;3.58;3.38;;;;;;;21.44;59.83;100248.78;5031721;28;20044;-86
2022/06/24 08:19:09;;;;;;;4.00;3.60;;;;;;;21.50;59.71;100246.69;5031655;28;20029;-86
2022/06/24 08:21:35;;;;;;;3.65;3.35;;;;;;;21.56;59.71;100241.00;5031771;28;20390;-86
2022/06/24 08:24:01;;;;;;;3.65;3.45;;;;;;;21.63;59.16;100234.28;5031636;28;20035;-85
2022/06/24 08:26:27;;;;;;;3.42;3.22;;;;;;;21.70;58.78;100235.53;5031620;28;20130;-85
2022/06/24 08:28:53;;;;;;;3.50;3.30;;;;;;;21.75;58.55;100230.75;5031649;28;20025;-85
2022/06/24 08:31:18;;;;;;;3.53;3.33;;;;;;;21.81;58.13;100216.19;5031511;28;20084;-85
2022/06/24 08:33:44;;;;;;;3.35;3.03;;;;;;;21.87;58.44;100215.75;5014952;28;20029;-85
2022/06/24 08:36:09;;;;;;;3.67;3.47;;;;;;;21.92;59.15;100207.44;5031540;28;20025;-86
2022/06/24 08:38:35;;;;;;;3.60;3.40;;;;;;;21.95;58.76;100201.91;5031490;28;20513;-86
2022/06/24 08:41:02;;;;;;;3.42;3.22;;;;;;;21.97;58.81;100194.66;5031378;28;20445;-86
2022/06/24 08:43:33;;;;;;;4.55;4.18;;;;;;;22.09;55.37;100196.44;5031355;28;20406;-86
2022/06/24 08:46:00;;;;;;;4.10;3.80;;;;;;;22.17;56.56;100195.03;5031060;28;20021;-86
2022/06/24 08:48:31;;;;;;;4.82;3.80;;;;;;;22.27;56.53;100190.75;5031277;28;20028;-86
2022/06/24 08:50:57;;;;;;;4.53;3.97;;;;;;;22.35;57.37;100191.06;5031503;28;20082;-86
2022/06/24 08:53:23;;;;;;;3.55;3.38;;;;;;;22.42;58.36;100184.31;5031151;28;20049;-86
2022/06/24 08:55:50;;;;;;;3.88;3.58;;;;;;;22.48;56.63;100180.34;5031015;28;20506;-86
2022/06/24 08:58:16;;;;;;;3.50;3.38;;;;;;;22.53;56.60;100180.84;5031408;28;20503;-86
2022/06/24 09:00:42;;;;;;;7.80;3.72;;;;;;;22.58;56.01;100175.22;5031132;28;20029;-86
2022/06/24 09:03:08;;;;;;;4.20;3.90;;;;;;;22.61;56.55;100172.31;5031189;28;20028;-86
2022/06/24 09:05:34;;;;;;;3.97;3.70;;;;;;;22.68;55.90;100173.53;5031224;28;20502;-86
2022/06/24 09:08:14;;;;;;;3.95;3.75;;;;;;;22.74;54.78;100170.44;5030869;28;20483;-86
2022/06/24 09:10:42;;;;;;;3.78;3.40;;;;;;;22.82;56.07;100167.16;5030997;28;20068;-86
2022/06/24 09:13:09;;;;;;;3.50;3.30;;;;;;;22.88;55.62;100168.53;5030853;28;20037;-86
2022/06/24 09:15:34;;;;;;;3.58;3.42;;;;;;;22.93;55.97;100161.00;5031042;28;20061;-86
2022/06/24 09:18:00;;;;;;;3.88;3.67;;;;;;;22.97;55.88;100162.47;5031190;28;20059;-86
2022/06/24 09:20:28;;;;;;;4.68;3.88;;;;;;;23.05;54.46;100152.06;5031090;28;20035;-86
2022/06/24 09:23:10;;;;;;;3.92;3.72;;;;;;;23.12;55.26;100155.13;5030811;28;20171;-86
2022/06/24 09:25:53;;;;;;;6.90;3.60;;;;;;;23.21;55.58;100153.59;5031103;28;20113;-86
2022/06/24 09:28:29;;;;;;;4.13;3.80;;;;;;;23.28;54.31;100150.31;5030831;28;20391;-86
2022/06/24 09:31:02;;;;;;;4.82;4.03;;;;;;;23.42;53.32;100151.06;5030875;28;20029;-86
2022/06/24 09:33:28;;;;;;;3.83;3.53;;;;;;;23.53;53.18;100147.53;5014255;28;20030;-86
2022/06/24 09:36:01;;;;;;;4.50;4.10;;;;;;;23.64;52.52;100147.53;5030621;28;20018;-86
2022/06/24 09:38:26;;;;;;;3.75;3.55;;;;;;;23.75;52.23;100150.19;5030572;28;20440;-86
2022/06/24 09:41:01;;;;;;;4.18;3.88;;;;;;;23.91;51.43;100146.31;5014281;28;20059;-85
2022/06/24 09:43:31;;;;;;;6.15;4.25;;;;;;;24.00;51.22;100144.75;5030762;28;20099;-86
2022/06/24 09:45:57;;;;;;;4.32;3.92;;;;;;;24.09;51.96;100150.16;5030737;28;20036;-86
2022/06/24 09:48:27;;;;;;;5.45;3.58;;;;;;;24.19;52.64;100146.75;5030675;28;20510;-86
2022/06/24 09:50:57;;;;;;;8.68;3.95;;;;;;;24.26;54.04;100150.59;5047248;28;20025;-86
2022/06/24 09:53:26;;;;;;;5.40;4.13;;;;;;;24.29;53.05;100151.16;5030785;28;20148;-86
2022/06/24 09:55:56;;;;;;;3.92;3.70;;;;;;;24.33;51.45;100162.44;5030877;28;20022;-86
2022/06/24 09:58:21;;;;;;;4.60;4.15;;;;;;;24.36;49.80;100156.84;5034522;28;20029;-86
2022/06/24 10:00:48;;;;;;;4.30;4.00;;;;;;;24.43;49.31;100149.19;5034757;28;20254;-86
2022/06/24 10:03:15;;;;;;;4.10;3.50;;;;;;;24.55;50.77;100149.97;5034509;28;20168;-86
2022/06/24 10:05:49;;;;;;;4.00;3.70;;;;;;;24.65;51.23;100142.94;5034224;28;20029;-86
2022/06/24 10:08:16;;;;;;;8.00;3.92;;;;;;;24.79;49.72;100144.44;5034234;28;20487;-85
2022/06/24 10:10:47;;;;;;;3.60;3.40;;;;;;;24.93;50.32;100144.09;5050681;28;20132;-86
2022/06/24 10:13:29;;;;;;;5.18;3.85;;;;;;;25.08;50.13;100141.94;5034209;28;20033;-86
2022/06/24 10:15:57;;;;;;;4.70;4.30;;;;;;;25.17;49.10;100134.09;5033941;28;20116;-85
2022/06/24 10:18:27;;;;;;;4.55;4.25;;;;;;;25.26;49.46;100138.66;5034053;28;20025;-85
2022/06/24 10:20:56;;;;;;;4.15;3.92;;;;;;;25.36;50.36;100134.22;5034455;28;20394;-85
2022/06/24 10:23:46;;;;;;;5.32;4.20;;;;;;;25.42;49.08;100133.69;5047780;23;20391;-85
2022/06/24 10:26:25;;;;;;;4.05;3.85;;;;;;;25.52;49.70;100132.88;5051623;28;20026;-83
2022/06/24 10:29:05;;;;;;;4.50;4.20;;;;;;;25.60;49.05;100127.69;5018074;28;20022;-83
2022/06/24 10:31:37;;;;;;;4.72;4.18;;;;;;;25.73;48.62;100125.63;5051409;28;20074;-84
2022/06/24 10:34:03;;;;;;;4.32;4.03;;;;;;;25.88;47.77;100106.50;5050972;28;20025;-83
2022/06/24 10:36:32;;;;;;;4.57;4.28;;;;;;;26.05;47.08;100113.88;5033753;28;20107;-83
2022/06/24 10:39:18;;;;;;;4.10;3.90;;;;;;;26.10;46.75;100114.31;5050823;28;20029;-83
2022/06/24 10:41:46;;;;;;;4.32;4.13;;;;;;;26.07;47.36;100121.75;5034076;28;20033;-84
2022/06/24 10:44:22;;;;;;;4.20;4.00;;;;;;;26.12;47.69;100120.38;5050407;28;20013;-84
2022/06/24 10:46:47;;;;;;;4.88;4.45;;;;;;;26.26;47.05;100118.25;5050903;28;20034;-83
2022/06/24 10:49:12;;;;;;;4.90;4.40;;;;;;;26.34;46.23;100102.31;5050617;28;20030;-84
2022/06/24 10:51:38;;;;;;;4.15;3.95;;;;;;;26.34;46.65;100093.47;5050232;28;20033;-84
2022/06/24 10:54:06;;;;;;;4.50;4.10;;;;;;;26.33;46.65;100106.00;5050521;28;20109;-84
2022/06/24 10:56:51;;;;;;;4.63;4.30;;;;;;;26.38;45.24;100089.50;5050350;28;20450;-84
2022/06/24 10:59:19;;;;;;;3.97;3.78;;;;;;;26.49;45.95;100092.88;5050592;28;20394;-84
2022/06/24 11:01:49;;;;;;;3.83;3.63;;;;;;;26.62;46.91;100086.38;5050061;28;20406;-84
2022/06/24 11:04:36;;;;;;;4.35;4.05;;;;;;;26.75;46.05;100099.47;5050511;28;20115;-83
2022/06/24 11:07:13;;;;;;;4.95;4.47;;;;;;;26.84;44.70;100092.44;5032467;28;20072;-84
2022/06/24 11:09:38;;;;;;;4.38;4.07;;;;;;;26.81;44.73;100082.84;5050771;28;20305;-84
2022/06/24 11:12:05;;;;;;;4.63;4.32;;;;;;;26.86;45.09;100082.41;5050220;28;20502;-84
2022/06/24 11:14:31;;;;;;;5.47;4.53;;;;;;;26.84;44.26;100081.72;5050081;28;20033;-84
2022/06/24 11:16:56;;;;;;;4.35;4.10;;;;;;;26.84;45.73;100076.34;5033405;28;20119;-84
2022/06/24 11:19:21;;;;;;;5.10;4.80;;;;;;;26.76;43.96;100080.59;5049968;28;20032;-84
2022/06/24 11:21:48;;;;;;;4.38;4.10;;;;;;;26.71;44.14;100076.66;5049866;28;20391;-83
2022/06/24 11:24:19;;;;;;;4.95;4.30;;;;;;;26.77;45.29;100081.44;5049296;28;20091;-84
2022/06/24 11:27:07;;;;;;;4.72;4.15;;;;;;;26.79;43.97;100066.94;5049711;28;20025;-84
2022/06/24 11:29:57;;;;;;;4.25;4.03;;;;;;;26.81;43.53;100064.94;5033044;28;20051;-84